createdAt,value
2018-02-04T00:00:46.800Z,5.80
2018-02-04T00:03:14.461Z,5.80
2018-02-04T00:05:42.065Z,5.80
2018-02-04T00:08:09.659Z,5.80
2018-02-04T00:10:37.183Z,5.80
2018-02-04T00:13:05.480Z,5.90
2018-02-04T00:15:33.085Z,5.90
2018-02-04T00:18:00.626Z,5.80
2018-02-04T00:20:28.203Z,5.80
2018-02-04T00:22:56.664Z,5.60
2018-02-04T00:25:24.326Z,5.60
2018-02-04T00:27:51.895Z,5.50
2018-02-04T00:30:19.483Z,5.50
2018-02-04T00:32:47.065Z,5.50
2018-02-04T00:35:16.016Z,5.60
2018-02-04T00:37:44.401Z,5.60
2018-02-04T00:40:12.265Z,5.60
2018-02-04T00:42:39.900Z,5.50
2018-02-04T00:45:08.227Z,5.30
2018-02-04T00:47:36.562Z,5.50
2018-02-04T00:50:04.963Z,5.50
2018-02-04T00:52:32.652Z,5.50
2018-02-04T00:55:00.195Z,5.40
2018-02-04T00:57:27.713Z,5.40
2018-02-04T00:59:55.415Z,5.40
2018-02-04T01:02:24.401Z,5.50
2018-02-04T01:04:51.952Z,5.50
2018-02-04T01:07:19.506Z,5.40
2018-02-04T01:09:47.071Z,5.50
2018-02-04T01:12:14.752Z,5.50
2018-02-04T01:14:42.348Z,5.40
2018-02-04T01:17:10.695Z,5.50
2018-02-04T01:19:38.229Z,5.50
2018-02-04T01:22:05.798Z,5.40
2018-02-04T01:24:33.389Z,5.30
2018-02-04T01:27:00.985Z,5.30
2018-02-04T01:29:29.338Z,5.20
2018-02-04T01:31:56.933Z,5.20
2018-02-04T01:34:24.549Z,5.30
2018-02-04T01:36:52.070Z,5.30
2018-02-04T01:39:19.591Z,5.50
2018-02-04T01:41:47.177Z,5.40
2018-02-04T01:44:14.749Z,5.40
2018-02-04T01:46:42.279Z,5.30
2018-02-04T01:49:09.844Z,5.40
2018-02-04T01:51:37.360Z,5.50
2018-02-04T01:54:04.907Z,5.40
2018-02-04T01:56:32.790Z,5.40
2018-02-04T01:59:00.527Z,5.50
2018-02-04T02:01:28.578Z,5.50
2018-02-04T02:03:56.101Z,5.50
2018-02-04T02:06:23.744Z,5.50
2018-02-04T02:08:51.283Z,5.50
2018-02-04T02:11:18.830Z,5.40
2018-02-04T02:13:46.410Z,5.40
2018-02-04T02:16:13.989Z,5.50
2018-02-04T02:18:42.298Z,5.60
2018-02-04T02:21:10.125Z,5.60
2018-02-04T02:23:37.673Z,5.50
2018-02-04T02:26:05.218Z,5.60
2018-02-04T02:28:32.790Z,5.60
2018-02-04T02:31:01.307Z,5.50
2018-02-04T02:33:29.651Z,5.40
2018-02-04T02:35:57.211Z,5.40
2018-02-04T02:38:25.755Z,5.50
2018-02-04T02:40:53.295Z,5.50
2018-02-04T02:43:20.808Z,5.40
2018-02-04T02:45:48.480Z,5.40
2018-02-04T02:48:16.017Z,5.40
2018-02-04T02:50:43.544Z,5.20
2018-02-04T02:53:11.163Z,5.20
2018-02-04T02:55:39.500Z,5.00
2018-02-04T02:58:07.964Z,5.00
2018-02-04T03:00:35.509Z,4.80
2018-02-04T03:03:03.829Z,4.90
2018-02-04T03:05:31.388Z,4.90
2018-02-04T03:08:02.350Z,4.90
2018-02-04T03:10:30.793Z,4.90
2018-02-04T03:12:58.330Z,5.00
2018-02-04T03:15:25.936Z,4.90
2018-02-04T03:17:53.469Z,4.80
2018-02-04T03:20:21.384Z,4.70
2018-02-04T03:22:48.920Z,4.60
2018-02-04T03:25:16.552Z,4.50
2018-02-04T03:27:44.196Z,4.70
2018-02-04T03:30:12.752Z,4.50
2018-02-04T03:32:40.333Z,4.60
2018-02-04T03:35:08.383Z,4.70
2018-02-04T03:37:35.909Z,4.70
2018-02-04T03:40:04.266Z,4.70
2018-02-04T03:42:31.888Z,4.50
2018-02-04T03:44:59.423Z,4.50
2018-02-04T03:47:26.983Z,4.60
2018-02-04T03:49:54.607Z,4.80
2018-02-04T03:52:22.160Z,4.80
2018-02-04T03:54:49.705Z,4.70
2018-02-04T03:57:18.128Z,4.60
2018-02-04T03:59:45.675Z,4.50
2018-02-04T04:02:13.195Z,4.60
2018-02-04T04:04:42.204Z,4.50
2018-02-04T04:07:10.497Z,4.40
2018-02-04T04:09:38.063Z,4.40
2018-02-04T04:12:05.623Z,4.40
2018-02-04T04:14:33.164Z,4.50
2018-02-04T04:17:00.738Z,4.40
2018-02-04T04:19:28.329Z,4.40
2018-02-04T04:21:55.863Z,4.30
2018-02-04T04:24:23.978Z,4.30
2018-02-04T04:26:51.497Z,4.20
2018-02-04T04:38:59.098Z,4.30
2018-02-04T04:41:26.982Z,4.10
2018-02-04T04:43:55.349Z,4.20
2018-02-04T04:46:22.946Z,4.20
2018-02-04T04:48:51.242Z,4.20
2018-02-04T04:51:18.804Z,4.30
2018-02-04T04:53:46.412Z,4.40
2018-02-04T04:56:14.027Z,4.50
2018-02-04T04:58:41.600Z,4.40
2018-02-04T05:01:09.425Z,4.50
2018-02-04T05:03:38.459Z,4.30
2018-02-04T05:06:05.985Z,4.30
2018-02-04T05:08:33.589Z,4.50
2018-02-04T05:11:01.108Z,4.50
2018-02-04T05:13:28.681Z,4.60
2018-02-04T05:15:56.242Z,4.60
2018-02-04T05:18:23.792Z,4.60
2018-02-04T05:20:51.361Z,4.60
2018-02-04T05:23:18.920Z,4.60
2018-02-04T05:25:46.481Z,4.60
2018-02-04T05:28:14.184Z,4.60
2018-02-04T05:30:41.804Z,4.80
2018-02-04T05:33:09.945Z,4.90
2018-02-04T05:35:38.318Z,4.90
2018-02-04T05:38:06.642Z,4.90
2018-02-04T05:40:34.467Z,4.90
2018-02-04T05:43:02.808Z,4.80
2018-02-04T05:45:30.337Z,4.80
2018-02-04T05:47:57.885Z,4.70
2018-02-04T05:50:25.501Z,4.60
2018-02-04T05:52:53.906Z,4.70
2018-02-04T05:55:22.302Z,4.70
2018-02-04T05:57:49.834Z,4.60
2018-02-04T06:00:18.164Z,4.40
2018-02-04T06:02:45.822Z,4.40
2018-02-04T06:05:13.644Z,4.40
2018-02-04T06:07:41.962Z,4.30
2018-02-04T06:10:09.580Z,4.30
2018-02-04T06:12:37.919Z,4.20
2018-02-04T06:15:05.598Z,4.20
2018-02-04T06:17:33.307Z,4.30
2018-02-04T06:20:00.841Z,4.30
2018-02-04T06:22:29.203Z,4.30
2018-02-04T06:24:56.829Z,4.30
2018-02-04T06:27:24.426Z,4.30
2018-02-04T06:29:51.975Z,4.30
2018-02-04T06:32:19.572Z,4.30
2018-02-04T06:34:47.119Z,4.40
2018-02-04T06:37:15.408Z,4.50
2018-02-04T06:39:43.760Z,4.50
2018-02-04T06:42:11.299Z,4.50
2018-02-04T06:44:38.891Z,4.50
2018-02-04T06:47:06.454Z,4.40
2018-02-04T06:49:34.004Z,4.40
2018-02-04T06:52:01.538Z,4.30
2018-02-04T06:54:29.163Z,4.30
2018-02-04T06:56:56.726Z,4.40
2018-02-04T06:59:24.897Z,4.40
2018-02-04T07:01:52.507Z,4.50
2018-02-04T07:04:20.096Z,4.60
2018-02-04T07:06:48.388Z,4.60
2018-02-04T07:09:16.012Z,4.50
2018-02-04T07:11:43.558Z,4.60
2018-02-04T07:14:11.255Z,4.60
2018-02-04T07:16:38.845Z,4.50
2018-02-04T07:19:06.370Z,4.40
2018-02-04T07:21:33.991Z,4.50
2018-02-04T07:24:02.059Z,4.40
2018-02-04T07:26:29.611Z,4.40
2018-02-04T07:28:57.186Z,4.40
2018-02-04T07:31:24.861Z,4.50
2018-02-04T07:33:52.435Z,4.50
2018-02-04T07:36:20.045Z,4.50
2018-02-04T07:38:47.610Z,4.60
2018-02-04T07:41:15.663Z,4.50
2018-02-04T07:43:43.267Z,4.50
2018-02-04T07:46:10.840Z,4.60
2018-02-04T07:48:38.495Z,4.70
2018-02-04T07:51:06.079Z,4.60
2018-02-04T07:53:33.643Z,4.60
2018-02-04T07:56:01.957Z,4.60
2018-02-04T07:58:29.482Z,4.60
2018-02-04T08:00:57.836Z,4.70
2018-02-04T08:03:25.398Z,4.70
2018-02-04T08:05:52.983Z,4.70
2018-02-04T08:08:20.574Z,4.60
2018-02-04T08:10:48.898Z,4.60
2018-02-04T08:13:16.501Z,4.60
2018-02-04T08:15:44.326Z,4.70
2018-02-04T08:18:12.665Z,4.90
2018-02-04T08:20:40.258Z,4.90
2018-02-04T08:23:07.830Z,4.90
2018-02-04T08:25:35.373Z,4.90
2018-02-04T08:28:02.953Z,4.90
2018-02-04T08:30:30.592Z,5.00
2018-02-04T08:32:58.131Z,5.00
2018-02-04T08:35:25.843Z,5.00
2018-02-04T08:37:54.176Z,5.30
2018-02-04T08:40:21.732Z,5.20
2018-02-04T08:42:49.268Z,5.30
2018-02-04T08:45:16.862Z,5.40
2018-02-04T08:47:44.418Z,5.40
2018-02-04T08:50:11.967Z,5.50
2018-02-04T08:52:39.509Z,5.50
2018-02-04T08:55:07.243Z,5.40
2018-02-04T08:57:34.778Z,5.50
2018-02-04T09:00:02.450Z,5.50
2018-02-04T09:02:29.993Z,5.50
2018-02-04T09:04:57.638Z,5.50
2018-02-04T09:07:25.211Z,5.40
2018-02-04T09:09:52.851Z,5.30
2018-02-04T09:12:20.420Z,5.40
2018-02-04T09:14:48.040Z,5.40
2018-02-04T09:17:15.608Z,5.50
2018-02-04T09:19:43.169Z,5.70
2018-02-04T09:22:10.747Z,5.70
2018-02-04T09:24:38.370Z,5.80
2018-02-04T09:27:05.933Z,5.70
2018-02-04T09:29:33.500Z,5.60
2018-02-04T09:32:01.037Z,5.60
2018-02-04T09:34:28.658Z,5.50
2018-02-04T09:36:56.182Z,5.30
2018-02-04T09:39:23.754Z,5.20
2018-02-04T09:41:51.330Z,5.10
2018-02-04T09:44:18.871Z,5.30
2018-02-04T09:46:47.340Z,5.20
2018-02-04T09:49:16.511Z,5.40
2018-02-04T09:51:44.892Z,5.20
2018-02-04T09:54:12.466Z,5.20
2018-02-04T09:56:40.053Z,5.20
2018-02-04T09:59:07.605Z,5.10
2018-02-04T10:01:35.214Z,5.10
2018-02-04T10:04:02.791Z,5.10
2018-02-04T10:06:31.019Z,5.20
2018-02-04T10:08:58.632Z,5.30
2018-02-04T10:11:26.218Z,5.40
2018-02-04T10:13:53.759Z,5.60
2018-02-04T10:16:21.343Z,5.50
2018-02-04T10:18:49.739Z,5.30
2018-02-04T10:21:17.289Z,5.30
2018-02-04T10:23:45.025Z,5.30
2018-02-04T10:26:13.969Z,5.40
2018-02-04T10:28:42.363Z,5.50
2018-02-04T10:31:10.090Z,5.50
2018-02-04T10:33:37.643Z,5.80
2018-02-04T10:36:05.323Z,5.90
2018-02-04T10:38:32.922Z,6.10
2018-02-04T10:41:00.537Z,6.20
2018-02-04T10:43:28.111Z,6.20
2018-02-04T10:45:55.715Z,6.10
2018-02-04T10:48:23.295Z,6.10
2018-02-04T10:50:56.496Z,6.00
2018-02-04T10:53:24.091Z,5.90
2018-02-04T10:55:51.638Z,5.70
2018-02-04T10:58:19.224Z,5.40
2018-02-04T11:00:46.841Z,5.30
2018-02-04T11:03:14.415Z,5.30
2018-02-04T11:05:42.797Z,5.20
2018-02-04T11:08:10.378Z,5.20
2018-02-04T11:10:37.927Z,5.30
2018-02-04T11:13:05.996Z,5.30
2018-02-04T11:15:33.508Z,5.20
2018-02-04T11:18:01.220Z,5.10
2018-02-04T11:20:28.750Z,5.00
2018-02-04T11:22:57.063Z,5.10
2018-02-04T11:25:24.643Z,5.10
2018-02-04T11:27:52.171Z,5.20
2018-02-04T11:30:19.709Z,5.30
2018-02-04T11:32:47.243Z,5.40
2018-02-04T11:35:14.779Z,5.30
2018-02-04T11:37:44.199Z,5.30
2018-02-04T11:40:11.781Z,5.40
2018-02-04T11:42:40.225Z,5.50
2018-02-04T11:45:08.287Z,5.40
2018-02-04T11:47:35.802Z,5.40
2018-02-04T11:50:05.031Z,5.50
2018-02-04T11:52:32.610Z,5.50
2018-02-04T11:55:00.320Z,5.60
2018-02-04T11:57:29.352Z,5.90
2018-02-04T11:59:56.930Z,5.90
2018-02-04T12:02:24.482Z,6.00
2018-02-04T12:04:52.141Z,5.70
2018-02-04T12:07:19.765Z,5.90
2018-02-04T12:09:47.324Z,6.00
2018-02-04T12:12:15.317Z,6.20
2018-02-04T12:14:43.015Z,6.30
2018-02-04T12:17:10.544Z,6.50
2018-02-04T12:19:38.351Z,6.50
2018-02-04T12:22:07.526Z,6.60
2018-02-04T12:24:35.154Z,6.60
2018-02-04T12:27:02.752Z,6.70
2018-02-04T12:29:30.335Z,6.60
2018-02-04T12:32:00.089Z,6.80
2018-02-04T12:34:27.775Z,6.80
2018-02-04T12:36:57.026Z,6.70
2018-02-04T12:39:24.565Z,6.60
2018-02-04T12:41:52.910Z,6.60
2018-02-04T12:44:20.498Z,6.60
2018-02-04T12:46:48.123Z,6.80
2018-02-04T12:49:15.679Z,6.80
2018-02-04T12:51:43.564Z,6.90
2018-02-04T12:54:11.193Z,6.80
2018-02-04T12:56:40.317Z,6.80
2018-02-04T12:59:07.910Z,6.80
2018-02-04T13:01:36.439Z,6.70
2018-02-04T13:04:04.434Z,6.70
2018-02-04T13:06:32.022Z,6.50
2018-02-04T13:09:00.461Z,6.30
2018-02-04T13:11:28.049Z,6.20
2018-02-04T13:13:55.581Z,6.10
2018-02-04T13:16:23.177Z,6.00
2018-02-04T13:18:50.744Z,6.10
2018-02-04T13:21:20.880Z,6.10
2018-02-04T13:23:49.833Z,6.10
2018-02-04T13:26:17.459Z,6.10
2018-02-04T13:41:40.327Z,6.10
2018-02-04T13:44:07.846Z,5.60
2018-02-04T13:46:35.432Z,5.50
2018-02-04T13:49:03.088Z,5.60
2018-02-04T13:51:30.651Z,5.70
2018-02-04T13:53:58.371Z,5.70
2018-02-04T13:56:26.109Z,5.80
2018-02-04T13:58:54.917Z,5.90
2018-02-04T14:01:23.316Z,6.10
2018-02-04T14:03:51.785Z,6.10
2018-02-04T14:06:20.404Z,6.20
2018-02-04T14:08:47.989Z,6.10
2018-02-04T14:11:15.619Z,6.10
2018-02-04T14:13:43.186Z,6.10
2018-02-04T14:16:11.592Z,6.20
2018-02-04T14:18:39.129Z,6.20
2018-02-04T14:21:06.710Z,6.30
2018-02-04T14:23:34.247Z,6.30
2018-02-04T14:26:01.798Z,6.20
2018-02-04T14:28:29.928Z,6.20
2018-02-04T14:30:57.534Z,6.10
2018-02-04T14:33:25.075Z,5.90
2018-02-04T14:35:53.395Z,5.80
2018-02-04T14:38:20.960Z,5.80
2018-02-04T14:40:48.503Z,5.90
2018-02-04T14:43:16.085Z,6.00
2018-02-04T14:45:44.360Z,5.90
2018-02-04T14:48:11.899Z,5.90
2018-02-04T14:50:39.860Z,5.90
2018-02-04T14:53:07.687Z,5.90
2018-02-04T14:55:35.259Z,6.00
2018-02-04T14:58:02.809Z,6.20
2018-02-04T15:00:30.375Z,6.20
2018-02-04T15:02:59.045Z,6.10
2018-02-04T15:05:27.721Z,6.10
2018-02-04T15:07:55.434Z,6.00
2018-02-04T15:10:23.028Z,6.10
2018-02-04T15:12:51.221Z,6.10
2018-02-04T15:15:18.818Z,6.20
2018-02-04T15:17:46.392Z,6.10
2018-02-04T15:20:14.067Z,6.00
2018-02-04T15:22:41.605Z,5.90
2018-02-04T15:25:10.129Z,5.90
2018-02-04T15:27:37.716Z,5.90
2018-02-04T15:30:05.347Z,5.90
2018-02-04T15:32:32.917Z,6.00
2018-02-04T15:35:00.435Z,6.10
2018-02-04T15:37:27.979Z,6.20
2018-02-04T15:39:55.580Z,6.20
2018-02-04T15:42:23.167Z,6.30
2018-02-04T15:44:50.764Z,6.40
2018-02-04T15:47:18.899Z,6.30
2018-02-04T15:49:46.518Z,6.20
2018-02-04T15:52:14.135Z,6.20
2018-02-04T15:54:41.707Z,6.10
2018-02-04T15:57:09.276Z,6.20
2018-02-04T15:59:36.787Z,6.30
2018-02-04T16:02:04.362Z,6.30
2018-02-04T16:04:31.985Z,6.30
2018-02-04T16:06:59.557Z,6.30
2018-02-04T16:09:27.856Z,6.30
2018-02-04T16:11:55.544Z,6.20
2018-02-04T16:14:23.861Z,6.30
2018-02-04T16:16:51.419Z,6.30
2018-02-04T16:19:19.007Z,6.40
2018-02-04T16:21:47.338Z,6.40
2018-02-04T16:24:14.962Z,6.40
2018-02-04T16:26:44.123Z,6.50
2018-02-04T16:29:11.667Z,6.50
2018-02-04T16:31:39.243Z,6.40
2018-02-04T16:34:06.769Z,6.40
2018-02-04T16:36:36.031Z,6.30
2018-02-04T16:39:04.876Z,6.30
2018-02-04T16:41:32.459Z,6.40
2018-02-04T16:44:00.028Z,6.40
2018-02-04T16:46:27.624Z,6.40
2018-02-04T16:48:55.294Z,6.40
2018-02-04T16:51:22.915Z,6.40
2018-02-04T16:53:50.515Z,6.40
2018-02-04T16:56:18.602Z,6.40
2018-02-04T16:58:46.174Z,6.30
2018-02-04T17:01:13.711Z,6.40
2018-02-04T17:03:41.514Z,6.40
2018-02-04T17:06:09.311Z,6.40
2018-02-04T17:08:37.526Z,6.40
2018-02-04T17:11:06.022Z,6.30
2018-02-04T17:13:33.915Z,6.30
2018-02-04T17:16:01.445Z,6.30
2018-02-04T17:18:29.038Z,6.20
2018-02-04T17:20:56.607Z,6.00
2018-02-04T17:23:24.190Z,6.00
2018-02-04T17:25:51.807Z,5.90
2018-02-04T17:28:19.360Z,5.90
2018-02-04T17:30:47.708Z,5.60
2018-02-04T17:33:15.287Z,5.60
2018-02-04T17:35:42.977Z,5.60
2018-02-04T17:38:10.548Z,5.60
2018-02-04T17:40:38.906Z,5.70
2018-02-04T17:43:06.504Z,5.60
2018-02-04T17:45:34.076Z,5.60
2018-02-04T17:48:01.690Z,5.70
2018-02-04T17:50:29.295Z,5.60
2018-02-04T17:52:56.849Z,5.70
2018-02-04T17:55:28.360Z,5.70
2018-02-04T17:57:55.982Z,5.70
2018-02-04T18:00:23.599Z,5.70
2018-02-04T18:02:51.143Z,5.60
2018-02-04T18:14:58.760Z,5.70
2018-02-04T18:17:26.384Z,5.40
2018-02-04T18:19:54.060Z,5.30
2018-02-04T18:22:21.648Z,5.40
2018-02-04T18:24:50.480Z,5.50
2018-02-04T18:27:19.499Z,5.40
2018-02-04T18:29:47.055Z,5.50
2018-02-04T18:32:14.596Z,5.60
2018-02-04T18:34:43.108Z,5.60
2018-02-04T18:37:11.524Z,5.70
2018-02-04T18:39:39.257Z,5.70
2018-02-04T18:42:07.313Z,5.80
2018-02-04T18:44:34.919Z,5.70
2018-02-04T18:47:02.511Z,5.70
2018-02-04T18:49:30.092Z,5.60
2018-02-04T18:51:57.674Z,5.50
2018-02-04T18:54:25.295Z,5.40
2018-02-04T18:56:53.275Z,4.90
2018-02-04T18:59:20.862Z,4.90
2018-02-04T19:01:48.418Z,5.00
2018-02-04T19:04:16.665Z,4.90
2018-02-04T19:06:44.210Z,4.80
2018-02-04T19:09:11.852Z,4.80
2018-02-04T19:11:40.280Z,4.70
2018-02-04T19:14:07.940Z,4.70
2018-02-04T19:16:35.486Z,4.80
2018-02-04T19:19:03.063Z,5.00
2018-02-04T19:21:31.240Z,5.00
2018-02-04T19:23:58.996Z,4.90
2018-02-04T19:26:26.546Z,4.70
2018-02-04T19:28:54.819Z,4.80
2018-02-04T19:31:22.439Z,4.80
2018-02-04T19:33:50.728Z,4.80
2018-02-04T19:36:19.101Z,4.80
2018-02-04T19:38:47.428Z,4.80
2018-02-04T19:41:15.031Z,4.70
2018-02-04T19:43:42.740Z,4.60
2018-02-04T19:46:10.324Z,4.50
2018-02-04T19:48:37.940Z,4.50
2018-02-04T19:51:05.491Z,4.50
2018-02-04T19:53:34.285Z,4.50
2018-02-04T19:56:01.838Z,4.40
2018-02-04T19:58:30.170Z,4.10
2018-02-04T20:00:58.214Z,4.10
2018-02-04T20:03:26.402Z,4.10
2018-02-04T20:05:53.976Z,4.10
2018-02-04T20:08:21.737Z,4.30
2018-02-04T20:10:49.354Z,4.40
2018-02-04T20:13:17.708Z,4.50
2018-02-04T20:15:45.382Z,4.50
2018-02-04T20:18:13.757Z,4.60
2018-02-04T20:20:41.386Z,4.50
2018-02-04T20:23:08.970Z,4.60
2018-02-04T20:25:36.557Z,4.60
2018-02-04T20:28:05.222Z,4.80
2018-02-04T20:30:32.805Z,4.80
2018-02-04T20:33:12.099Z,4.90
2018-02-04T20:35:40.050Z,5.00
2018-02-04T20:38:08.460Z,4.90
2018-02-04T20:40:35.985Z,4.90
2018-02-04T20:43:03.625Z,5.10
2018-02-04T20:45:31.340Z,5.00
2018-02-04T20:47:58.916Z,5.00
2018-02-04T20:50:27.583Z,5.10
2018-02-04T20:52:55.205Z,5.10
2018-02-04T20:55:22.760Z,5.20
2018-02-04T20:57:50.290Z,5.20
2018-02-04T21:00:18.754Z,5.30
2018-02-04T21:02:46.388Z,5.30
2018-02-04T21:05:15.692Z,5.20
2018-02-04T21:07:43.311Z,5.20
2018-02-04T21:10:10.952Z,5.10
2018-02-04T21:12:39.292Z,5.20
2018-02-04T21:15:06.875Z,5.10
2018-02-04T21:17:34.454Z,5.20
2018-02-04T21:20:02.820Z,5.30
2018-02-04T21:22:33.864Z,5.30
2018-02-04T21:25:03.173Z,5.30
2018-02-04T21:27:31.527Z,5.30
2018-02-04T21:30:00.217Z,5.30
2018-02-04T21:45:22.824Z,5.30
2018-02-04T21:47:50.561Z,4.90
2018-02-04T21:50:18.124Z,4.70
2018-02-04T21:52:46.141Z,4.60
2018-02-04T22:08:08.907Z,4.60
2018-02-04T22:10:37.212Z,4.60
2018-02-04T22:13:04.842Z,4.60
2018-02-04T22:15:33.323Z,4.70
2018-02-04T22:18:01.242Z,4.80
2018-02-04T22:20:29.096Z,4.90
2018-02-04T22:22:57.195Z,4.70
2018-02-04T22:25:25.472Z,4.80
2018-02-04T22:27:53.006Z,4.80
2018-02-04T22:30:21.037Z,4.80
2018-02-04T22:32:50.037Z,4.90
2018-02-04T22:35:19.657Z,5.00
2018-02-04T22:37:47.549Z,5.00
2018-02-04T22:40:15.074Z,5.00
2018-02-04T22:42:42.624Z,5.00
2018-02-04T22:45:10.224Z,5.00
2018-02-04T22:47:39.166Z,5.20
2018-02-04T22:50:06.730Z,5.20
2018-02-04T22:52:34.935Z,5.20
2018-02-04T22:55:02.531Z,5.10
2018-02-04T22:57:30.083Z,4.90
2018-02-04T22:59:58.955Z,4.70
2018-02-04T23:02:27.896Z,4.60
2018-02-04T23:04:55.495Z,4.50
2018-02-04T23:07:23.054Z,4.50
2018-02-04T23:09:51.048Z,4.50
2018-02-04T23:25:15.173Z,4.20
2018-02-04T23:27:43.576Z,4.10
2018-02-04T23:30:11.188Z,4.10
2018-02-04T23:32:40.202Z,4.10
2018-02-04T23:35:07.865Z,4.10
2018-02-04T23:37:36.197Z,4.10
2018-02-04T23:49:44.613Z,4.10
2018-02-04T23:52:12.175Z,3.70
2018-02-04T23:54:39.735Z,3.60
2018-02-04T23:57:08.882Z,3.50
2018-02-04T23:59:36.456Z,3.50
